createdAt,value
2017-09-20T09:18:05.524Z,13.70
2017-09-20T09:21:07.885Z,13.90
2017-09-20T09:24:09.557Z,12.80
2017-09-20T09:27:12.144Z,13.90
2017-09-20T09:30:13.985Z,13.40
2017-09-20T09:33:15.479Z,14.30
2017-09-20T09:36:17.193Z,13.70
2017-09-20T09:39:19.789Z,14.20
2017-09-20T09:42:25.997Z,12.70
2017-09-20T09:48:36.656Z,13.00
2017-09-20T09:51:39.788Z,13.60
2017-09-20T09:54:41.516Z,13.70
2017-09-20T09:57:43.187Z,12.60
2017-09-20T10:00:44.699Z,13.30
2017-09-20T10:03:47.032Z,14.10
2017-09-20T10:06:48.520Z,14.30
2017-09-20T10:09:50.080Z,13.80
2017-09-20T10:12:51.540Z,14.90
2017-09-20T10:15:53.059Z,13.60
2017-09-20T10:18:55.858Z,13.50
2017-09-20T10:21:57.372Z,13.90
2017-09-20T10:24:58.996Z,13.60
2017-09-20T10:28:01.420Z,14.80
2017-09-20T10:31:03.828Z,13.70
2017-09-20T10:34:05.326Z,14.60
2017-09-20T10:37:06.947Z,14.80
2017-09-20T10:40:09.115Z,14.60
2017-09-20T10:43:10.725Z,14.60
2017-09-20T10:46:12.980Z,14.70
2017-09-20T10:49:14.438Z,14.90
2017-09-20T10:52:16.776Z,14.70
2017-09-20T10:55:18.320Z,14.90
2017-09-20T10:58:19.808Z,14.80
2017-09-20T11:01:21.259Z,14.40
2017-09-20T11:04:22.788Z,14.70
2017-09-20T11:07:24.312Z,14.30
2017-09-20T11:10:25.905Z,15.00
2017-09-20T11:13:27.434Z,14.60
2017-09-20T11:16:28.999Z,14.30
2017-09-20T11:19:30.584Z,16.40
2017-09-20T11:22:32.124Z,15.90
2017-09-20T11:25:33.714Z,15.50
2017-09-20T11:28:35.960Z,15.00
2017-09-20T11:31:37.556Z,13.80
2017-09-20T11:34:39.116Z,14.50
2017-09-20T11:37:40.641Z,14.90
2017-09-20T11:40:43.049Z,15.20
2017-09-20T11:43:44.666Z,14.20
2017-09-20T11:46:46.211Z,15.20
2017-09-20T11:49:47.715Z,14.90
2017-09-20T11:52:49.268Z,15.90
2017-09-20T11:55:50.766Z,15.40
2017-09-20T11:58:52.312Z,16.40
2017-09-20T12:01:53.842Z,15.20
2017-09-20T12:04:55.341Z,17.00
2017-09-20T12:07:56.869Z,15.90
2017-09-20T12:14:06.508Z,18.00
2017-09-20T12:17:07.942Z,16.70
2017-09-20T12:20:10.189Z,16.60
2017-09-20T12:23:11.655Z,15.70
2017-09-20T12:26:13.908Z,16.20
2017-09-20T12:29:15.429Z,16.20
2017-09-20T12:32:16.976Z,14.60
2017-09-20T12:35:18.472Z,16.80
2017-09-20T12:38:19.976Z,15.30
2017-09-20T12:41:21.493Z,16.90
2017-09-20T12:44:23.020Z,17.50
2017-09-20T12:47:24.579Z,16.60
2017-09-20T12:50:26.483Z,20.00
2017-09-20T12:53:28.111Z,18.70
2017-09-20T12:56:29.806Z,18.70
2017-09-20T12:59:31.288Z,19.30
2017-09-20T13:02:33.484Z,18.40
2017-09-20T13:05:35.719Z,17.90
2017-09-20T13:08:37.279Z,18.30
2017-09-20T13:11:39.608Z,17.00
2017-09-20T13:14:41.994Z,18.00
2017-09-20T13:17:43.507Z,18.30
2017-09-20T13:20:49.141Z,17.80
2017-09-20T13:23:50.612Z,18.20
2017-09-20T13:26:52.045Z,17.10
2017-09-20T13:29:54.368Z,18.60
2017-09-20T13:32:57.532Z,18.60
2017-09-20T13:36:00.685Z,18.60
2017-09-20T13:39:02.250Z,18.20
2017-09-20T13:42:03.723Z,18.40
2017-09-20T13:45:06.019Z,18.20
2017-09-20T13:48:07.515Z,18.30
2017-09-20T13:51:09.011Z,18.10
2017-09-20T13:54:10.536Z,18.60
2017-09-20T13:57:12.065Z,18.20
2017-09-20T14:00:13.601Z,18.70
2017-09-20T14:03:15.129Z,19.70
2017-09-20T14:06:17.473Z,19.30
2017-09-20T14:09:19.759Z,19.00
2017-09-20T14:12:21.297Z,18.60
2017-09-20T14:15:22.800Z,18.50
2017-09-20T14:18:24.356Z,18.40
2017-09-20T14:21:25.893Z,18.20
2017-09-20T14:24:28.139Z,18.00
2017-09-20T14:27:30.388Z,18.20
2017-09-20T14:30:31.916Z,18.00
2017-09-20T14:36:46.699Z,18.40
2017-09-20T14:39:48.306Z,18.40
2017-09-20T14:42:50.574Z,18.70
2017-09-20T14:45:52.897Z,18.70
2017-09-20T14:48:54.422Z,17.50
2017-09-20T14:51:56.708Z,18.10
2017-09-20T14:54:58.251Z,16.60
2017-09-20T14:57:59.938Z,18.50
2017-09-20T15:04:09.680Z,17.50
2017-09-20T15:07:11.200Z,17.30
2017-09-20T15:10:12.738Z,17.10
2017-09-20T15:13:14.423Z,17.10
2017-09-20T15:16:16.713Z,17.60
2017-09-20T15:19:19.007Z,17.80
2017-09-20T15:22:20.538Z,17.70
2017-09-20T15:25:22.832Z,17.50
2017-09-20T15:28:24.328Z,17.50
2017-09-20T15:31:25.880Z,17.50
2017-09-20T15:34:27.530Z,17.20
2017-09-20T15:46:12.548Z,16.40
2017-09-20T15:49:14.075Z,16.30
2017-09-20T15:52:15.687Z,16.10
2017-09-20T15:55:17.196Z,16.30
2017-09-20T15:58:18.754Z,17.10
2017-09-20T16:01:20.289Z,16.90
2017-09-20T16:04:21.883Z,15.40
2017-09-20T16:07:24.256Z,16.00
2017-09-20T16:10:25.849Z,15.70
2017-09-20T16:13:27.406Z,15.10
2017-09-20T17:57:54.042Z,15.10
2017-09-20T18:00:56.342Z,14.50
2017-09-20T18:03:58.599Z,15.00
2017-09-20T18:10:08.633Z,13.70
2017-09-20T18:13:10.918Z,14.90
2017-09-20T18:16:16.179Z,14.80
2017-09-20T18:19:18.621Z,14.80
2017-09-20T18:22:20.283Z,14.80
2017-09-20T18:25:27.224Z,14.90
2017-09-20T18:28:29.655Z,14.80
2017-09-20T18:31:32.089Z,14.80
2017-09-20T18:34:33.798Z,14.80
2017-09-20T18:37:36.029Z,15.90
2017-09-20T18:40:37.606Z,14.90
2017-09-20T18:43:39.504Z,13.30
2017-09-20T19:54:39.023Z,12.80
2017-09-20T19:57:44.279Z,14.10
2017-09-20T20:07:53.311Z,14.80
2017-09-20T20:10:54.767Z,13.30
2017-09-20T20:13:56.208Z,13.10
2017-09-20T20:16:57.678Z,14.10
2017-09-20T20:19:59.139Z,14.10
2017-09-20T20:23:00.564Z,13.10
2017-09-20T20:26:02.075Z,14.90
2017-09-20T20:29:03.691Z,13.10
2017-09-20T20:32:05.053Z,12.80
2017-09-20T20:35:06.498Z,13.20
2017-09-20T20:38:07.940Z,13.80
2017-09-20T20:41:09.481Z,13.00
2017-09-20T20:44:10.941Z,13.60
2017-09-20T20:47:12.435Z,13.20
2017-09-20T20:50:14.686Z,13.80
2017-09-20T20:53:16.237Z,13.30
2017-09-20T20:56:17.768Z,13.50
2017-09-20T20:59:19.300Z,13.30
2017-09-20T21:02:20.972Z,14.00
2017-09-20T21:05:22.484Z,14.20
2017-09-20T21:08:24.038Z,14.30
2017-09-20T21:11:25.664Z,14.40
2017-09-20T21:14:27.166Z,15.60
2017-09-20T21:17:28.731Z,13.60
2017-09-20T21:20:30.210Z,13.90
2017-09-20T21:23:31.939Z,13.80
2017-09-20T21:26:33.484Z,13.80
2017-09-20T21:29:35.085Z,13.60
2017-09-20T21:32:36.654Z,12.80
2017-09-20T21:35:38.307Z,13.50
2017-09-20T21:38:39.828Z,13.70
2017-09-20T21:41:41.396Z,13.40
2017-09-20T21:44:43.605Z,13.70
2017-09-20T21:47:45.103Z,12.80
2017-09-20T21:50:46.652Z,13.50
2017-09-20T21:53:48.172Z,12.50
2017-09-20T21:56:49.675Z,12.90
2017-09-20T21:59:51.200Z,14.40
2017-09-20T22:02:52.812Z,12.70
2017-09-20T22:05:54.330Z,13.40
2017-09-20T22:08:55.853Z,12.30
2017-09-20T22:11:58.060Z,13.50
2017-09-20T22:15:17.906Z,12.70
2017-09-20T22:18:37.911Z,13.00
2017-09-20T22:21:57.898Z,12.90
2017-09-20T22:25:17.789Z,12.20
2017-09-20T22:28:19.417Z,13.40
2017-09-20T22:31:21.158Z,13.50
2017-09-20T22:34:22.646Z,12.50
2017-09-20T22:37:24.236Z,12.80
2017-09-20T22:40:25.768Z,13.90
2017-09-20T22:43:27.244Z,12.60
2017-09-20T22:46:29.459Z,13.40
2017-09-20T22:49:30.985Z,12.20
2017-09-20T22:52:32.691Z,13.50
2017-09-20T22:55:34.906Z,13.30
2017-09-20T22:58:36.496Z,13.20
2017-09-20T23:01:38.060Z,14.10
2017-09-20T23:04:40.320Z,13.40
2017-09-20T23:07:41.885Z,13.20
2017-09-20T23:10:43.433Z,12.50
2017-09-20T23:13:45.037Z,13.70
2017-09-20T23:16:47.298Z,13.30
2017-09-20T23:19:48.743Z,13.10
2017-09-20T23:22:50.257Z,11.80
2017-09-20T23:25:51.765Z,12.50
2017-09-20T23:28:53.238Z,12.50
2017-09-20T23:31:55.532Z,13.30
2017-09-20T23:34:56.988Z,12.20
2017-09-20T23:37:58.450Z,13.20
2017-09-20T23:40:59.907Z,13.50
2017-09-20T23:44:01.339Z,12.70
2017-09-20T23:47:02.811Z,13.10
2017-09-20T23:50:04.288Z,13.20
2017-09-20T23:53:05.693Z,13.10
2017-09-20T23:56:07.197Z,12.70
2017-09-20T23:59:08.701Z,12.70
